sensor_id;sensor_type;location;lat;lon;timestamp;P1;durP1;ratioP1;P2;durP2;ratioP2
9767;SDS011;4923;52.520;13.494;2023-06-14T00:02:26;1.70;;;1.60;;
9767;SDS011;4923;52.520;13.494;2023-06-14T00:05:15;1.63;;;1.50;;
9767;SDS011;4923;52.520;13.494;2023-06-14T00:08:01;1.80;;;1.70;;
9767;SDS011;4923;52.520;13.494;2023-06-14T00:10:50;1.48;;;1.38;;
9767;SDS011;4923;52.520;13.494;2023-06-14T00:13:37;1.30;;;1.30;;
9767;SDS011;4923;52.520;13.494;2023-06-14T00:16:24;1.70;;;1.60;;
9767;SDS011;4923;52.520;13.494;2023-06-14T00:19:11;1.33;;;1.33;;
9767;SDS011;4923;52.520;13.494;2023-06-14T00:21:59;1.80;;;1.70;;
9767;SDS011;4923;52.520;13.494;2023-06-14T00:24:46;3.83;;;1.70;;
9767;SDS011;4923;52.520;13.494;2023-06-14T00:27:33;1.70;;;1.35;;
9767;SDS011;4923;52.520;13.494;2023-06-14T00:30:20;2.70;;;1.77;;
9767;SDS011;4923;52.520;13.494;2023-06-14T00:33:07;1.55;;;1.45;;
9767;SDS011;4923;52.520;13.494;2023-06-14T00:35:54;2.67;;;1.60;;
9767;SDS011;4923;52.520;13.494;2023-06-14T00:38:42;4.13;;;2.22;;
9767;SDS011;4923;52.520;13.494;2023-06-14T00:41:28;1.85;;;1.85;;
9767;SDS011;4923;52.520;13.494;2023-06-14T00:44:16;1.92;;;1.83;;
9767;SDS011;4923;52.520;13.494;2023-06-14T00:47:03;1.70;;;1.65;;
9767;SDS011;4923;52.520;13.494;2023-06-14T00:49:50;3.55;;;2.13;;
9767;SDS011;4923;52.520;13.494;2023-06-14T00:52:39;7.60;;;2.15;;
9767;SDS011;4923;52.520;13.494;2023-06-14T00:55:27;2.47;;;2.22;;
9767;SDS011;4923;52.520;13.494;2023-06-14T00:58:15;1.63;;;1.63;;
9767;SDS011;4923;52.520;13.494;2023-06-14T01:01:02;2.28;;;1.80;;
9767;SDS011;4923;52.520;13.494;2023-06-14T01:03:49;2.58;;;2.38;;
9767;SDS011;4923;52.520;13.494;2023-06-14T01:06:39;2.25;;;2.15;;
9767;SDS011;4923;52.520;13.494;2023-06-14T01:09:37;1.67;;;1.58;;
9767;SDS011;4923;52.520;13.494;2023-06-14T01:12:34;3.72;;;2.45;;
9767;SDS011;4923;52.520;13.494;2023-06-14T01:15:26;3.08;;;2.67;;
9767;SDS011;4923;52.520;13.494;2023-06-14T01:18:15;1.90;;;1.80;;
9767;SDS011;4923;52.520;13.494;2023-06-14T01:21:03;2.60;;;2.50;;
9767;SDS011;4923;52.520;13.494;2023-06-14T01:23:52;2.33;;;2.22;;
9767;SDS011;4923;52.520;13.494;2023-06-14T01:26:39;1.95;;;1.85;;
9767;SDS011;4923;52.520;13.494;2023-06-14T01:29:31;8.00;;;2.92;;
9767;SDS011;4923;52.520;13.494;2023-06-14T01:32:18;2.55;;;2.20;;
9767;SDS011;4923;52.520;13.494;2023-06-14T01:35:06;2.83;;;2.28;;
9767;SDS011;4923;52.520;13.494;2023-06-14T01:37:53;2.60;;;2.50;;
9767;SDS011;4923;52.520;13.494;2023-06-14T01:40:42;4.15;;;3.65;;
9767;SDS011;4923;52.520;13.494;2023-06-14T01:43:29;3.75;;;3.10;;
9767;SDS011;4923;52.520;13.494;2023-06-14T01:46:17;4.28;;;2.42;;
9767;SDS011;4923;52.520;13.494;2023-06-14T01:49:05;3.67;;;2.67;;
9767;SDS011;4923;52.520;13.494;2023-06-14T01:51:52;3.25;;;3.08;;
9767;SDS011;4923;52.520;13.494;2023-06-14T01:54:39;3.10;;;2.72;;
9767;SDS011;4923;52.520;13.494;2023-06-14T01:57:28;8.73;;;2.60;;
9767;SDS011;4923;52.520;13.494;2023-06-14T02:00:16;3.05;;;2.95;;
9767;SDS011;4923;52.520;13.494;2023-06-14T02:03:03;3.80;;;2.83;;
9767;SDS011;4923;52.520;13.494;2023-06-14T02:05:50;8.85;;;3.13;;
9767;SDS011;4923;52.520;13.494;2023-06-14T02:08:37;3.35;;;3.15;;
9767;SDS011;4923;52.520;13.494;2023-06-14T02:11:24;3.92;;;3.47;;
9767;SDS011;4923;52.520;13.494;2023-06-14T02:14:12;3.25;;;3.08;;
9767;SDS011;4923;52.520;13.494;2023-06-14T02:17:00;4.00;;;2.97;;
9767;SDS011;4923;52.520;13.494;2023-06-14T02:19:47;5.78;;;3.10;;
9767;SDS011;4923;52.520;13.494;2023-06-14T02:22:34;6.85;;;3.10;;
9767;SDS011;4923;52.520;13.494;2023-06-14T02:25:20;4.13;;;2.95;;
9767;SDS011;4923;52.520;13.494;2023-06-14T02:28:07;4.03;;;3.55;;
9767;SDS011;4923;52.520;13.494;2023-06-14T02:30:55;3.28;;;2.95;;
9767;SDS011;4923;52.520;13.494;2023-06-14T02:33:42;3.35;;;3.15;;
9767;SDS011;4923;52.520;13.494;2023-06-14T02:36:29;3.47;;;3.33;;
9767;SDS011;4923;52.520;13.494;2023-06-14T02:39:16;4.57;;;3.35;;
9767;SDS011;4923;52.520;13.494;2023-06-14T02:42:06;3.92;;;3.00;;
9767;SDS011;4923;52.520;13.494;2023-06-14T02:44:53;3.85;;;3.40;;
9767;SDS011;4923;52.520;13.494;2023-06-14T02:47:41;3.45;;;3.33;;
9767;SDS011;4923;52.520;13.494;2023-06-14T02:50:28;3.70;;;3.47;;
9767;SDS011;4923;52.520;13.494;2023-06-14T02:53:15;7.30;;;3.55;;
9767;SDS011;4923;52.520;13.494;2023-06-14T02:56:03;3.60;;;3.40;;
9767;SDS011;4923;52.520;13.494;2023-06-14T02:58:50;7.43;;;3.47;;
9767;SDS011;4923;52.520;13.494;2023-06-14T03:01:38;7.07;;;3.83;;
9767;SDS011;4923;52.520;13.494;2023-06-14T03:04:27;4.93;;;3.22;;
9767;SDS011;4923;52.520;13.494;2023-06-14T03:07:14;3.35;;;3.10;;
9767;SDS011;4923;52.520;13.494;2023-06-14T03:10:05;3.78;;;3.47;;
9767;SDS011;4923;52.520;13.494;2023-06-14T03:12:52;6.28;;;3.78;;
9767;SDS011;4923;52.520;13.494;2023-06-14T03:15:39;4.75;;;3.33;;
9767;SDS011;4923;52.520;13.494;2023-06-14T03:18:26;4.93;;;3.80;;
9767;SDS011;4923;52.520;13.494;2023-06-14T03:21:14;6.45;;;3.70;;
9767;SDS011;4923;52.520;13.494;2023-06-14T03:24:02;4.50;;;4.20;;
9767;SDS011;4923;52.520;13.494;2023-06-14T03:26:49;4.55;;;3.70;;
9767;SDS011;4923;52.520;13.494;2023-06-14T03:29:36;4.05;;;3.75;;
9767;SDS011;4923;52.520;13.494;2023-06-14T03:32:22;3.33;;;3.20;;
9767;SDS011;4923;52.520;13.494;2023-06-14T03:35:09;3.63;;;3.38;;
9767;SDS011;4923;52.520;13.494;2023-06-14T03:38:03;10.77;;;3.33;;
9767;SDS011;4923;52.520;13.494;2023-06-14T03:40:50;5.22;;;3.63;;
9767;SDS011;4923;52.520;13.494;2023-06-14T03:43:37;4.03;;;3.72;;
9767;SDS011;4923;52.520;13.494;2023-06-14T03:46:24;4.55;;;3.40;;
9767;SDS011;4923;52.520;13.494;2023-06-14T03:49:11;5.70;;;4.30;;
9767;SDS011;4923;52.520;13.494;2023-06-14T03:51:58;6.93;;;3.40;;
9767;SDS011;4923;52.520;13.494;2023-06-14T03:54:46;7.93;;;2.90;;
9767;SDS011;4923;52.520;13.494;2023-06-14T03:57:33;3.45;;;3.22;;
9767;SDS011;4923;52.520;13.494;2023-06-14T04:00:20;10.33;;;3.47;;
9767;SDS011;4923;52.520;13.494;2023-06-14T04:03:06;4.20;;;3.10;;
9767;SDS011;4923;52.520;13.494;2023-06-14T04:05:53;3.50;;;3.20;;
9767;SDS011;4923;52.520;13.494;2023-06-14T04:08:41;9.53;;;3.03;;
9767;SDS011;4923;52.520;13.494;2023-06-14T04:11:32;3.10;;;2.90;;
9767;SDS011;4923;52.520;13.494;2023-06-14T04:14:18;4.20;;;3.30;;
9767;SDS011;4923;52.520;13.494;2023-06-14T04:17:06;2.90;;;2.80;;
9767;SDS011;4923;52.520;13.494;2023-06-14T04:19:52;5.43;;;3.90;;
9767;SDS011;4923;52.520;13.494;2023-06-14T04:22:39;3.00;;;2.87;;
9767;SDS011;4923;52.520;13.494;2023-06-14T04:25:26;3.50;;;2.23;;
9767;SDS011;4923;52.520;13.494;2023-06-14T04:28:17;8.13;;;3.83;;
9767;SDS011;4923;52.520;13.494;2023-06-14T04:31:04;10.93;;;3.90;;
9767;SDS011;4923;52.520;13.494;2023-06-14T04:33:53;9.00;;;2.83;;
9767;SDS011;4923;52.520;13.494;2023-06-14T04:36:40;4.53;;;3.27;;
9767;SDS011;4923;52.520;13.494;2023-06-14T04:39:34;15.17;;;3.57;;
9767;SDS011;4923;52.520;13.494;2023-06-14T04:42:21;6.83;;;3.57;;
9767;SDS011;4923;52.520;13.494;2023-06-14T04:45:11;8.13;;;3.50;;
9767;SDS011;4923;52.520;13.494;2023-06-14T04:47:58;4.07;;;3.67;;
9767;SDS011;4923;52.520;13.494;2023-06-14T04:50:45;11.20;;;3.47;;
9767;SDS011;4923;52.520;13.494;2023-06-14T04:53:32;12.80;;;4.07;;
9767;SDS011;4923;52.520;13.494;2023-06-14T04:56:19;10.80;;;3.50;;
9767;SDS011;4923;52.520;13.494;2023-06-14T04:59:06;16.47;;;3.53;;
9767;SDS011;4923;52.520;13.494;2023-06-14T05:01:55;12.90;;;3.50;;
9767;SDS011;4923;52.520;13.494;2023-06-14T05:04:42;23.53;;;5.57;;
9767;SDS011;4923;52.520;13.494;2023-06-14T05:07:29;5.40;;;4.10;;
9767;SDS011;4923;52.520;13.494;2023-06-14T05:10:16;9.90;;;4.90;;
9767;SDS011;4923;52.520;13.494;2023-06-14T05:13:03;13.10;;;4.90;;
9767;SDS011;4923;52.520;13.494;2023-06-14T05:15:50;14.70;;;5.00;;
9767;SDS011;4923;52.520;13.494;2023-06-14T05:18:38;7.30;;;4.77;;
9767;SDS011;4923;52.520;13.494;2023-06-14T05:21:25;6.27;;;4.10;;
9767;SDS011;4923;52.520;13.494;2023-06-14T05:24:12;9.07;;;4.17;;
9767;SDS011;4923;52.520;13.494;2023-06-14T05:26:59;9.57;;;4.90;;
9767;SDS011;4923;52.520;13.494;2023-06-14T05:29:47;5.87;;;3.90;;
9767;SDS011;4923;52.520;13.494;2023-06-14T05:32:34;4.93;;;3.93;;
9767;SDS011;4923;52.520;13.494;2023-06-14T05:35:22;7.83;;;4.23;;
9767;SDS011;4923;52.520;13.494;2023-06-14T05:38:11;15.13;;;4.47;;
9767;SDS011;4923;52.520;13.494;2023-06-14T05:40:58;9.90;;;4.13;;
9767;SDS011;4923;52.520;13.494;2023-06-14T05:43:45;25.93;;;5.73;;
9767;SDS011;4923;52.520;13.494;2023-06-14T05:46:32;14.73;;;4.60;;
9767;SDS011;4923;52.520;13.494;2023-06-14T05:49:19;8.87;;;4.17;;
9767;SDS011;4923;52.520;13.494;2023-06-14T05:52:08;9.13;;;4.80;;
9767;SDS011;4923;52.520;13.494;2023-06-14T05:54:55;4.27;;;3.87;;
9767;SDS011;4923;52.520;13.494;2023-06-14T05:57:42;9.17;;;4.40;;
9767;SDS011;4923;52.520;13.494;2023-06-14T06:00:29;18.83;;;5.20;;
9767;SDS011;4923;52.520;13.494;2023-06-14T06:03:16;6.27;;;3.90;;
9767;SDS011;4923;52.520;13.494;2023-06-14T06:06:02;16.17;;;3.70;;
9767;SDS011;4923;52.520;13.494;2023-06-14T06:08:51;10.23;;;4.40;;
9767;SDS011;4923;52.520;13.494;2023-06-14T06:11:38;3.90;;;3.60;;
9767;SDS011;4923;52.520;13.494;2023-06-14T06:14:24;14.03;;;4.50;;
9767;SDS011;4923;52.520;13.494;2023-06-14T06:17:11;15.63;;;3.80;;
9767;SDS011;4923;52.520;13.494;2023-06-14T06:19:58;6.97;;;2.90;;
9767;SDS011;4923;52.520;13.494;2023-06-14T06:22:45;7.63;;;3.23;;
9767;SDS011;4923;52.520;13.494;2023-06-14T06:25:33;8.60;;;3.50;;
9767;SDS011;4923;52.520;13.494;2023-06-14T06:28:20;10.00;;;3.13;;
9767;SDS011;4923;52.520;13.494;2023-06-14T06:31:07;11.90;;;3.73;;
9767;SDS011;4923;52.520;13.494;2023-06-14T06:33:54;14.73;;;3.90;;
9767;SDS011;4923;52.520;13.494;2023-06-14T06:36:41;16.70;;;3.77;;
9767;SDS011;4923;52.520;13.494;2023-06-14T06:39:28;6.80;;;3.70;;
9767;SDS011;4923;52.520;13.494;2023-06-14T06:42:16;3.90;;;2.90;;
9767;SDS011;4923;52.520;13.494;2023-06-14T06:45:03;7.13;;;3.40;;
9767;SDS011;4923;52.520;13.494;2023-06-14T06:47:51;7.50;;;3.37;;
9767;SDS011;4923;52.520;13.494;2023-06-14T06:50:38;14.97;;;3.70;;
9767;SDS011;4923;52.520;13.494;2023-06-14T06:53:25;11.03;;;3.57;;
9767;SDS011;4923;52.520;13.494;2023-06-14T06:56:12;10.10;;;3.40;;
9767;SDS011;4923;52.520;13.494;2023-06-14T06:59:00;8.70;;;3.30;;
9767;SDS011;4923;52.520;13.494;2023-06-14T07:01:47;9.90;;;3.03;;
9767;SDS011;4923;52.520;13.494;2023-06-14T07:04:33;12.70;;;3.07;;
9767;SDS011;4923;52.520;13.494;2023-06-14T07:07:20;11.70;;;3.30;;
9767;SDS011;4923;52.520;13.494;2023-06-14T07:10:08;3.87;;;3.33;;
9767;SDS011;4923;52.520;13.494;2023-06-14T07:12:55;4.47;;;3.57;;
9767;SDS011;4923;52.520;13.494;2023-06-14T07:15:43;9.23;;;3.30;;
9767;SDS011;4923;52.520;13.494;2023-06-14T07:18:30;7.50;;;2.83;;
9767;SDS011;4923;52.520;13.494;2023-06-14T07:21:17;9.40;;;3.40;;
9767;SDS011;4923;52.520;13.494;2023-06-14T07:24:05;5.50;;;3.40;;
9767;SDS011;4923;52.520;13.494;2023-06-14T07:26:53;6.00;;;3.40;;
9767;SDS011;4923;52.520;13.494;2023-06-14T07:29:41;8.90;;;2.87;;
9767;SDS011;4923;52.520;13.494;2023-06-14T07:32:29;6.67;;;2.57;;
9767;SDS011;4923;52.520;13.494;2023-06-14T07:35:16;10.30;;;3.33;;
9767;SDS011;4923;52.520;13.494;2023-06-14T07:38:03;5.90;;;2.50;;
9767;SDS011;4923;52.520;13.494;2023-06-14T07:40:50;8.03;;;3.40;;
9767;SDS011;4923;52.520;13.494;2023-06-14T07:43:36;7.37;;;3.10;;
9767;SDS011;4923;52.520;13.494;2023-06-14T07:46:23;9.70;;;3.47;;
9767;SDS011;4923;52.520;13.494;2023-06-14T07:49:11;8.27;;;3.30;;
9767;SDS011;4923;52.520;13.494;2023-06-14T07:51:58;8.60;;;3.70;;
9767;SDS011;4923;52.520;13.494;2023-06-14T07:54:45;14.93;;;3.60;;
9767;SDS011;4923;52.520;13.494;2023-06-14T07:57:32;7.53;;;3.00;;
9767;SDS011;4923;52.520;13.494;2023-06-14T08:00:19;3.90;;;3.07;;
9767;SDS011;4923;52.520;13.494;2023-06-14T08:03:06;6.43;;;3.27;;
9767;SDS011;4923;52.520;13.494;2023-06-14T08:05:54;6.43;;;3.47;;
9767;SDS011;4923;52.520;13.494;2023-06-14T08:08:41;5.33;;;3.10;;
9767;SDS011;4923;52.520;13.494;2023-06-14T08:11:28;3.13;;;2.90;;
9767;SDS011;4923;52.520;13.494;2023-06-14T08:14:15;13.23;;;2.70;;
9767;SDS011;4923;52.520;13.494;2023-06-14T08:17:02;16.83;;;3.00;;
9767;SDS011;4923;52.520;13.494;2023-06-14T08:19:49;17.97;;;2.37;;
9767;SDS011;4923;52.520;13.494;2023-06-14T08:22:37;3.53;;;2.33;;
9767;SDS011;4923;52.520;13.494;2023-06-14T08:25:27;3.17;;;2.40;;
9767;SDS011;4923;52.520;13.494;2023-06-14T08:28:14;2.77;;;2.30;;
9767;SDS011;4923;52.520;13.494;2023-06-14T08:31:01;4.17;;;2.80;;
9767;SDS011;4923;52.520;13.494;2023-06-14T08:33:48;3.73;;;2.43;;
9767;SDS011;4923;52.520;13.494;2023-06-14T08:36:34;2.30;;;1.83;;
9767;SDS011;4923;52.520;13.494;2023-06-14T08:39:23;4.23;;;2.20;;
9767;SDS011;4923;52.520;13.494;2023-06-14T08:42:10;5.03;;;2.30;;
9767;SDS011;4923;52.520;13.494;2023-06-14T08:44:58;7.50;;;2.20;;
9767;SDS011;4923;52.520;13.494;2023-06-14T08:47:46;2.40;;;2.20;;
9767;SDS011;4923;52.520;13.494;2023-06-14T08:50:37;3.67;;;2.03;;
9767;SDS011;4923;52.520;13.494;2023-06-14T08:53:28;5.53;;;2.33;;
9767;SDS011;4923;52.520;13.494;2023-06-14T08:56:18;8.10;;;2.20;;
9767;SDS011;4923;52.520;13.494;2023-06-14T08:59:05;2.30;;;2.20;;
9767;SDS011;4923;52.520;13.494;2023-06-14T09:01:54;2.53;;;2.00;;
9767;SDS011;4923;52.520;13.494;2023-06-14T09:04:42;3.13;;;2.40;;
9767;SDS011;4923;52.520;13.494;2023-06-14T09:07:29;6.20;;;1.90;;
9767;SDS011;4923;52.520;13.494;2023-06-14T09:10:16;7.53;;;2.23;;
9767;SDS011;4923;52.520;13.494;2023-06-14T09:13:05;8.63;;;2.57;;
9767;SDS011;4923;52.520;13.494;2023-06-14T09:15:52;2.00;;;1.87;;
9767;SDS011;4923;52.520;13.494;2023-06-14T09:18:40;4.43;;;1.90;;
9767;SDS011;4923;52.520;13.494;2023-06-14T09:21:29;9.53;;;1.70;;
9767;SDS011;4923;52.520;13.494;2023-06-14T09:24:21;2.03;;;1.70;;
9767;SDS011;4923;52.520;13.494;2023-06-14T09:27:14;4.23;;;1.93;;
9767;SDS011;4923;52.520;13.494;2023-06-14T09:30:03;4.20;;;1.70;;
9767;SDS011;4923;52.520;13.494;2023-06-14T09:32:53;7.27;;;2.70;;
9767;SDS011;4923;52.520;13.494;2023-06-14T09:35:40;13.57;;;2.20;;
9767;SDS011;4923;52.520;13.494;2023-06-14T09:38:27;12.37;;;2.43;;
9767;SDS011;4923;52.520;13.494;2023-06-14T09:41:14;4.03;;;2.70;;
9767;SDS011;4923;52.520;13.494;2023-06-14T09:44:01;2.60;;;1.83;;
9767;SDS011;4923;52.520;13.494;2023-06-14T09:46:50;11.60;;;2.00;;
9767;SDS011;4923;52.520;13.494;2023-06-14T09:49:39;4.63;;;2.70;;
9767;SDS011;4923;52.520;13.494;2023-06-14T09:52:25;23.60;;;2.60;;
9767;SDS011;4923;52.520;13.494;2023-06-14T09:55:14;3.37;;;2.30;;
9767;SDS011;4923;52.520;13.494;2023-06-14T09:58:03;2.73;;;1.57;;
9767;SDS011;4923;52.520;13.494;2023-06-14T10:00:52;5.40;;;2.37;;
9767;SDS011;4923;52.520;13.494;2023-06-14T10:03:42;6.43;;;2.10;;
9767;SDS011;4923;52.520;13.494;2023-06-14T10:06:30;3.50;;;1.80;;
9767;SDS011;4923;52.520;13.494;2023-06-14T10:09:18;2.40;;;1.77;;
9767;SDS011;4923;52.520;13.494;2023-06-14T10:12:06;8.97;;;2.77;;
9767;SDS011;4923;52.520;13.494;2023-06-14T10:14:54;2.83;;;1.93;;
9767;SDS011;4923;52.520;13.494;2023-06-14T10:17:44;3.70;;;2.33;;
9767;SDS011;4923;52.520;13.494;2023-06-14T10:20:37;20.43;;;2.70;;
9767;SDS011;4923;52.520;13.494;2023-06-14T10:23:28;3.50;;;2.10;;
9767;SDS011;4923;52.520;13.494;2023-06-14T10:26:20;4.97;;;1.57;;
9767;SDS011;4923;52.520;13.494;2023-06-14T10:29:10;4.90;;;2.10;;
9767;SDS011;4923;52.520;13.494;2023-06-14T10:31:57;2.10;;;1.77;;
9767;SDS011;4923;52.520;13.494;2023-06-14T10:34:45;3.77;;;2.50;;
9767;SDS011;4923;52.520;13.494;2023-06-14T10:37:41;5.33;;;2.03;;
9767;SDS011;4923;52.520;13.494;2023-06-14T10:40:30;6.13;;;2.70;;
9767;SDS011;4923;52.520;13.494;2023-06-14T10:43:21;5.00;;;2.27;;
9767;SDS011;4923;52.520;13.494;2023-06-14T10:46:13;11.10;;;2.27;;
9767;SDS011;4923;52.520;13.494;2023-06-14T10:49:08;9.37;;;2.03;;
9767;SDS011;4923;52.520;13.494;2023-06-14T10:51:55;10.13;;;2.47;;
9767;SDS011;4923;52.520;13.494;2023-06-14T10:54:59;4.80;;;1.63;;
9767;SDS011;4923;52.520;13.494;2023-06-14T10:57:50;2.30;;;2.20;;
9767;SDS011;4923;52.520;13.494;2023-06-14T11:00:41;4.33;;;2.10;;
9767;SDS011;4923;52.520;13.494;2023-06-14T11:03:36;4.00;;;2.17;;
9767;SDS011;4923;52.520;13.494;2023-06-14T11:06:44;1.90;;;1.63;;
9767;SDS011;4923;52.520;13.494;2023-06-14T11:09:46;2.63;;;2.30;;
9767;SDS011;4923;52.520;13.494;2023-06-14T11:12:49;4.07;;;1.83;;
9767;SDS011;4923;52.520;13.494;2023-06-14T11:15:38;2.50;;;2.40;;
9767;SDS011;4923;52.520;13.494;2023-06-14T11:18:30;6.73;;;3.07;;
9767;SDS011;4923;52.520;13.494;2023-06-14T11:21:17;4.30;;;1.70;;
9767;SDS011;4923;52.520;13.494;2023-06-14T11:24:09;5.57;;;2.17;;
9767;SDS011;4923;52.520;13.494;2023-06-14T11:26:56;2.53;;;2.33;;
9767;SDS011;4923;52.520;13.494;2023-06-14T11:29:48;15.20;;;2.40;;
9767;SDS011;4923;52.520;13.494;2023-06-14T11:32:35;3.67;;;2.70;;
9767;SDS011;4923;52.520;13.494;2023-06-14T11:35:23;10.03;;;2.53;;
9767;SDS011;4923;52.520;13.494;2023-06-14T11:38:10;5.63;;;2.50;;
9767;SDS011;4923;52.520;13.494;2023-06-14T11:41:00;3.80;;;2.40;;
9767;SDS011;4923;52.520;13.494;2023-06-14T11:43:47;4.70;;;1.93;;
9767;SDS011;4923;52.520;13.494;2023-06-14T11:46:35;7.30;;;2.03;;
9767;SDS011;4923;52.520;13.494;2023-06-14T11:49:22;6.40;;;2.50;;
9767;SDS011;4923;52.520;13.494;2023-06-14T11:52:11;4.97;;;1.63;;
9767;SDS011;4923;52.520;13.494;2023-06-14T11:54:58;5.47;;;1.83;;
9767;SDS011;4923;52.520;13.494;2023-06-14T11:57:46;2.37;;;2.27;;
9767;SDS011;4923;52.520;13.494;2023-06-14T12:00:34;11.53;;;2.43;;
9767;SDS011;4923;52.520;13.494;2023-06-14T12:03:23;1.93;;;1.80;;
9767;SDS011;4923;52.520;13.494;2023-06-14T12:06:11;4.10;;;2.47;;
9767;SDS011;4923;52.520;13.494;2023-06-14T12:08:58;5.63;;;2.37;;
9767;SDS011;4923;52.520;13.494;2023-06-14T12:11:46;4.10;;;2.63;;
9767;SDS011;4923;52.520;13.494;2023-06-14T12:14:33;5.23;;;2.77;;
9767;SDS011;4923;52.520;13.494;2023-06-14T12:17:20;7.13;;;1.80;;
9767;SDS011;4923;52.520;13.494;2023-06-14T12:20:09;4.37;;;2.07;;
9767;SDS011;4923;52.520;13.494;2023-06-14T12:22:59;7.60;;;1.90;;
9767;SDS011;4923;52.520;13.494;2023-06-14T12:25:48;1.57;;;1.43;;
9767;SDS011;4923;52.520;13.494;2023-06-14T12:28:37;7.80;;;1.50;;
9767;SDS011;4923;52.520;13.494;2023-06-14T12:31:26;9.97;;;1.80;;
9767;SDS011;4923;52.520;13.494;2023-06-14T12:34:12;6.53;;;1.83;;
9767;SDS011;4923;52.520;13.494;2023-06-14T12:37:01;5.03;;;1.77;;
9767;SDS011;4923;52.520;13.494;2023-06-14T12:39:49;7.60;;;1.60;;
9767;SDS011;4923;52.520;13.494;2023-06-14T12:42:36;9.43;;;1.87;;
9767;SDS011;4923;52.520;13.494;2023-06-14T12:45:23;9.73;;;1.73;;
9767;SDS011;4923;52.520;13.494;2023-06-14T12:48:10;4.00;;;1.93;;
9767;SDS011;4923;52.520;13.494;2023-06-14T12:50:57;6.53;;;2.00;;
9767;SDS011;4923;52.520;13.494;2023-06-14T12:53:45;5.70;;;2.30;;
9767;SDS011;4923;52.520;13.494;2023-06-14T12:56:32;3.53;;;1.57;;
9767;SDS011;4923;52.520;13.494;2023-06-14T12:59:19;22.90;;;2.40;;
9767;SDS011;4923;52.520;13.494;2023-06-14T13:02:12;2.07;;;1.87;;
9767;SDS011;4923;52.520;13.494;2023-06-14T13:04:59;9.37;;;2.40;;
9767;SDS011;4923;52.520;13.494;2023-06-14T13:07:49;4.77;;;2.00;;
9767;SDS011;4923;52.520;13.494;2023-06-14T13:10:37;3.40;;;2.70;;
9767;SDS011;4923;52.520;13.494;2023-06-14T13:13:24;3.37;;;1.90;;
9767;SDS011;4923;52.520;13.494;2023-06-14T13:16:11;5.83;;;1.90;;
9767;SDS011;4923;52.520;13.494;2023-06-14T13:18:59;6.47;;;2.20;;
9767;SDS011;4923;52.520;13.494;2023-06-14T13:21:46;6.73;;;2.07;;
9767;SDS011;4923;52.520;13.494;2023-06-14T13:24:34;3.37;;;1.93;;
9767;SDS011;4923;52.520;13.494;2023-06-14T13:27:22;4.00;;;2.03;;
9767;SDS011;4923;52.520;13.494;2023-06-14T13:30:10;3.00;;;2.17;;
9767;SDS011;4923;52.520;13.494;2023-06-14T13:32:58;3.17;;;1.80;;
9767;SDS011;4923;52.520;13.494;2023-06-14T13:35:45;3.80;;;1.60;;
9767;SDS011;4923;52.520;13.494;2023-06-14T13:38:34;7.60;;;2.10;;
9767;SDS011;4923;52.520;13.494;2023-06-14T13:41:20;4.73;;;1.40;;
9767;SDS011;4923;52.520;13.494;2023-06-14T13:44:10;7.13;;;2.00;;
9767;SDS011;4923;52.520;13.494;2023-06-14T13:46:59;11.40;;;2.03;;
9767;SDS011;4923;52.520;13.494;2023-06-14T13:49:46;10.90;;;1.73;;
9767;SDS011;4923;52.520;13.494;2023-06-14T13:52:33;1.63;;;1.50;;
9767;SDS011;4923;52.520;13.494;2023-06-14T13:55:20;4.40;;;1.90;;
9767;SDS011;4923;52.520;13.494;2023-06-14T13:58:07;2.03;;;1.90;;
9767;SDS011;4923;52.520;13.494;2023-06-14T14:00:56;4.00;;;1.90;;
9767;SDS011;4923;52.520;13.494;2023-06-14T14:03:45;2.73;;;2.53;;
9767;SDS011;4923;52.520;13.494;2023-06-14T14:06:32;3.80;;;2.60;;
9767;SDS011;4923;52.520;13.494;2023-06-14T14:09:19;1.67;;;1.67;;
9767;SDS011;4923;52.520;13.494;2023-06-14T14:12:06;3.30;;;1.93;;
9767;SDS011;4923;52.520;13.494;2023-06-14T14:14:53;2.73;;;1.90;;
9767;SDS011;4923;52.520;13.494;2023-06-14T14:17:41;5.90;;;2.30;;
9767;SDS011;4923;52.520;13.494;2023-06-14T14:20:29;3.00;;;1.87;;
9767;SDS011;4923;52.520;13.494;2023-06-14T14:23:16;8.17;;;1.97;;
9767;SDS011;4923;52.520;13.494;2023-06-14T14:26:05;4.53;;;1.83;;
9767;SDS011;4923;52.520;13.494;2023-06-14T14:28:52;5.70;;;2.03;;
9767;SDS011;4923;52.520;13.494;2023-06-14T14:31:39;5.20;;;2.10;;
9767;SDS011;4923;52.520;13.494;2023-06-14T14:34:27;3.77;;;2.20;;
9767;SDS011;4923;52.520;13.494;2023-06-14T14:37:14;2.10;;;1.87;;
9767;SDS011;4923;52.520;13.494;2023-06-14T14:40:01;2.10;;;1.80;;
9767;SDS011;4923;52.520;13.494;2023-06-14T14:42:49;2.10;;;1.93;;
9767;SDS011;4923;52.520;13.494;2023-06-14T14:45:36;5.70;;;2.00;;
9767;SDS011;4923;52.520;13.494;2023-06-14T14:48:23;9.80;;;1.80;;
9767;SDS011;4923;52.520;13.494;2023-06-14T14:51:11;5.07;;;2.03;;
9767;SDS011;4923;52.520;13.494;2023-06-14T14:53:58;7.87;;;2.13;;
9767;SDS011;4923;52.520;13.494;2023-06-14T14:56:45;4.67;;;1.63;;
9767;SDS011;4923;52.520;13.494;2023-06-14T14:59:32;5.23;;;2.17;;
9767;SDS011;4923;52.520;13.494;2023-06-14T15:02:19;5.00;;;1.93;;
9767;SDS011;4923;52.520;13.494;2023-06-14T15:05:06;36.87;;;2.30;;
9767;SDS011;4923;52.520;13.494;2023-06-14T15:07:54;3.87;;;1.70;;
9767;SDS011;4923;52.520;13.494;2023-06-14T15:10:41;4.03;;;1.90;;
9767;SDS011;4923;52.520;13.494;2023-06-14T15:13:28;3.03;;;1.80;;
9767;SDS011;4923;52.520;13.494;2023-06-14T15:16:15;9.20;;;1.70;;
9767;SDS011;4923;52.520;13.494;2023-06-14T15:19:02;5.83;;;2.23;;
9767;SDS011;4923;52.520;13.494;2023-06-14T15:21:49;10.30;;;2.07;;
9767;SDS011;4923;52.520;13.494;2023-06-14T15:24:37;26.97;;;2.53;;
9767;SDS011;4923;52.520;13.494;2023-06-14T15:27:24;2.50;;;2.17;;
9767;SDS011;4923;52.520;13.494;2023-06-14T15:30:11;6.03;;;2.47;;
9767;SDS011;4923;52.520;13.494;2023-06-14T15:32:58;17.13;;;2.00;;
9767;SDS011;4923;52.520;13.494;2023-06-14T15:35:45;7.80;;;2.33;;
9767;SDS011;4923;52.520;13.494;2023-06-14T15:38:32;10.73;;;2.13;;
9767;SDS011;4923;52.520;13.494;2023-06-14T15:41:20;5.03;;;2.33;;
9767;SDS011;4923;52.520;13.494;2023-06-14T15:44:07;2.27;;;2.07;;
9767;SDS011;4923;52.520;13.494;2023-06-14T15:46:55;10.93;;;2.30;;
9767;SDS011;4923;52.520;13.494;2023-06-14T15:49:41;6.63;;;2.27;;
9767;SDS011;4923;52.520;13.494;2023-06-14T15:52:28;9.20;;;2.57;;
9767;SDS011;4923;52.520;13.494;2023-06-14T15:55:15;3.70;;;1.63;;
9767;SDS011;4923;52.520;13.494;2023-06-14T15:58:03;2.73;;;1.67;;
9767;SDS011;4923;52.520;13.494;2023-06-14T16:00:50;8.70;;;2.23;;
9767;SDS011;4923;52.520;13.494;2023-06-14T16:03:37;3.80;;;2.07;;
9767;SDS011;4923;52.520;13.494;2023-06-14T16:06:24;2.67;;;1.80;;
9767;SDS011;4923;52.520;13.494;2023-06-14T16:09:11;3.70;;;2.07;;
9767;SDS011;4923;52.520;13.494;2023-06-14T16:11:58;10.93;;;2.07;;
9767;SDS011;4923;52.520;13.494;2023-06-14T16:14:46;11.20;;;1.80;;
9767;SDS011;4923;52.520;13.494;2023-06-14T16:17:33;1.90;;;1.80;;
9767;SDS011;4923;52.520;13.494;2023-06-14T16:20:20;1.93;;;1.53;;
9767;SDS011;4923;52.520;13.494;2023-06-14T16:23:07;17.37;;;1.73;;
9767;SDS011;4923;52.520;13.494;2023-06-14T16:25:54;11.63;;;2.10;;
9767;SDS011;4923;52.520;13.494;2023-06-14T16:28:41;2.47;;;1.50;;
9767;SDS011;4923;52.520;13.494;2023-06-14T16:31:29;3.90;;;2.10;;
9767;SDS011;4923;52.520;13.494;2023-06-14T16:34:16;5.93;;;2.80;;
9767;SDS011;4923;52.520;13.494;2023-06-14T16:37:03;3.90;;;1.73;;
9767;SDS011;4923;52.520;13.494;2023-06-14T16:39:50;4.10;;;1.80;;
9767;SDS011;4923;52.520;13.494;2023-06-14T16:42:37;4.30;;;2.10;;
9767;SDS011;4923;52.520;13.494;2023-06-14T16:45:24;12.27;;;2.20;;
9767;SDS011;4923;52.520;13.494;2023-06-14T16:48:12;5.03;;;1.87;;
9767;SDS011;4923;52.520;13.494;2023-06-14T16:50:59;2.77;;;2.00;;
9767;SDS011;4923;52.520;13.494;2023-06-14T16:53:46;2.03;;;1.90;;
9767;SDS011;4923;52.520;13.494;2023-06-14T16:56:33;3.67;;;1.97;;
9767;SDS011;4923;52.520;13.494;2023-06-14T16:59:20;2.13;;;1.90;;
9767;SDS011;4923;52.520;13.494;2023-06-14T17:02:07;22.57;;;2.97;;
9767;SDS011;4923;52.520;13.494;2023-06-14T17:04:55;18.33;;;2.10;;
9767;SDS011;4923;52.520;13.494;2023-06-14T17:07:42;2.63;;;2.00;;